Time;durP1;ratioP1;P1;durP2;ratioP2;P2;SDS_P1;SDS_P2;PMS_P1;PMS_P2;Temp;Humidity;BMP_temperature;BMP_pressure;BME280_temperature;BME280_humidity;BME280_pressure;Samples;Min_cycle;Max_cycle;Signal;HPM_P1;HPM_P2
2022/05/31 00:01:55;;;;;;;6.18;5.00;;;10.70;99.90;;;;;;5076147;28;20476;-70
2022/05/31 00:04:22;;;;;;;8.30;5.25;;;10.70;99.90;;;;;;5077114;28;20046;-70
2022/05/31 00:06:49;;;;;;;8.85;5.00;;;10.80;99.90;;;;;;5093266;28;20472;-70
2022/05/31 00:09:16;;;;;;;7.97;5.45;;;10.80;99.90;;;;;;5077377;28;20352;-70
2022/05/31 00:11:43;;;;;;;7.05;4.97;;;10.80;99.90;;;;;;5094401;28;20352;-70
2022/05/31 00:14:11;;;;;;;8.57;5.47;;;10.90;99.90;;;;;;5093028;28;20078;-70
2022/05/31 00:16:38;;;;;;;7.00;5.45;;;10.90;99.90;;;;;;5076190;28;20040;-70
2022/05/31 00:19:06;;;;;;;6.30;4.60;;;10.90;99.90;;;;;;5092665;28;20372;-70
2022/05/31 00:21:45;;;;;;;10.55;5.78;;;10.90;99.90;;;;;;5094245;28;20407;-70
2022/05/31 00:24:15;;;;;;;6.70;6.00;;;10.90;99.90;;;;;;5075942;28;20048;-70
2022/05/31 00:26:42;;;;;;;8.15;5.25;;;10.90;99.90;;;;;;5093753;28;20291;-70
2022/05/31 00:29:09;;;;;;;6.25;5.05;;;10.80;99.90;;;;;;5092820;28;20040;-70
2022/05/31 00:31:37;;;;;;;10.20;5.10;;;10.80;99.90;;;;;;5092622;28;20052;-70
2022/05/31 00:34:04;;;;;;;5.80;4.78;;;10.90;99.90;;;;;;5077028;28;20044;-70
2022/05/31 00:36:31;;;;;;;5.70;5.03;;;10.90;99.90;;;;;;5075788;28;20047;-70
2022/05/31 00:38:58;;;;;;;9.27;5.32;;;10.90;99.90;;;;;;5093575;28;20040;-70
2022/05/31 00:41:26;;;;;;;7.10;4.57;;;10.90;99.90;;;;;;5094065;28;20070;-70
2022/05/31 00:44:07;;;;;;;5.45;4.50;;;10.80;99.90;;;;;;5093817;28;20433;-70
2022/05/31 00:46:49;;;;;;;5.32;4.22;;;10.90;99.90;;;;;;5093446;28;20051;-70
2022/05/31 00:49:24;;;;;;;7.60;5.22;;;10.90;99.90;;;;;;5092436;28;20044;-70
2022/05/31 00:51:53;;;;;;;7.88;5.38;;;10.90;99.90;;;;;;5093555;28;20054;-70
2022/05/31 00:54:21;;;;;;;7.25;5.57;;;11.00;99.90;;;;;;5075950;28;20044;-70
2022/05/31 00:56:49;;;;;;;8.43;6.35;;;11.00;99.90;;;;;;5092518;28;20066;-70
2022/05/31 00:59:18;;;;;;;10.48;7.07;;;11.00;99.90;;;;;;5075490;28;20483;-69
2022/05/31 01:01:47;;;;;;;8.60;5.90;;;11.00;99.90;;;;;;5092121;28;20509;-70
2022/05/31 01:04:14;;;;;;;13.63;7.05;;;11.10;99.90;;;;;;5059606;28;20040;-70
2022/05/31 01:06:41;;;;;;;9.07;5.25;;;11.00;99.90;;;;;;5092377;28;20046;-72
2022/05/31 01:09:08;;;;;;;8.13;4.97;;;10.90;99.90;;;;;;5093385;28;20048;-73
2022/05/31 01:11:38;;;;;;;6.82;3.45;;;10.90;99.90;;;;;;5092318;28;20051;-74
2022/05/31 01:14:06;;;;;;;4.82;3.00;;;10.70;99.90;;;;;;5079999;28;20040;-74
2022/05/31 01:16:33;;;;;;;6.63;2.70;;;10.60;99.90;;;;;;5096611;28;20036;-74
2022/05/31 01:19:00;;;;;;;5.07;2.80;;;10.40;99.90;;;;;;5079551;28;20101;-73
2022/05/31 01:21:28;;;;;;;4.57;2.85;;;10.40;99.90;;;;;;5098232;28;20132;-73
2022/05/31 01:24:15;;;;;;;4.35;2.65;;;10.30;99.90;;;;;;5096486;28;20395;-73
2022/05/31 01:26:47;;;;;;;4.63;2.83;;;10.30;99.90;;;;;;5096173;28;20058;-72
2022/05/31 01:29:24;;;;;;;4.18;3.35;;;10.20;99.90;;;;;;5096953;28;20070;-72
2022/05/31 01:31:59;;;;;;;4.60;3.30;;;10.30;99.90;;;;;;5096026;28;20047;-71
2022/05/31 01:34:35;;;;;;;4.93;3.80;;;10.30;99.90;;;;;;5096775;28;20039;-72
2022/05/31 01:37:02;;;;;;;5.93;4.45;;;10.30;99.90;;;;;;5097102;28;20051;-72
2022/05/31 01:39:30;;;;;;;5.55;4.40;;;10.20;99.90;;;;;;5096864;28;20050;-72
2022/05/31 01:41:58;;;;;;;7.10;4.80;;;10.30;99.90;;;;;;5096862;28;20040;-73
2022/05/31 01:44:29;;;;;;;6.05;4.18;;;10.20;99.90;;;;;;5096097;28;20048;-72
2022/05/31 01:46:56;;;;;;;4.68;3.58;;;10.20;99.90;;;;;;5097791;28;20051;-72
2022/05/31 01:49:23;;;;;;;4.50;3.60;;;10.20;99.90;;;;;;5079367;28;20048;-72
2022/05/31 01:51:50;;;;;;;10.15;4.32;;;10.20;99.90;;;;;;5079072;28;20490;-72
2022/05/31 01:54:17;;;;;;;8.13;4.07;;;10.20;99.90;;;;;;5097912;28;20040;-72
2022/05/31 01:56:46;;;;;;;5.57;4.05;;;10.20;99.90;;;;;;5079399;28;20044;-71
2022/05/31 01:59:13;;;;;;;4.95;4.30;;;10.20;99.90;;;;;;5096548;28;20048;-71
2022/05/31 02:01:40;;;;;;;5.03;4.40;;;10.20;99.90;;;;;;5095490;28;20044;-71
2022/05/31 02:04:07;;;;;;;6.82;4.15;;;10.20;99.90;;;;;;5062252;28;20051;-71
2022/05/31 02:06:38;;;;;;;6.15;5.10;;;10.20;99.90;;;;;;5095683;28;20459;-72
2022/05/31 02:09:07;;;;;;;7.50;4.47;;;10.20;99.90;;;;;;5095440;28;20048;-71
2022/05/31 02:11:34;;;;;;;5.60;4.47;;;10.30;99.90;;;;;;5078979;28;20051;-71
2022/05/31 02:14:02;;;;;;;6.72;5.32;;;10.30;99.90;;;;;;5095544;28;20361;-72
2022/05/31 02:16:29;;;;;;;6.35;4.18;;;10.30;99.90;;;;;;5078444;28;20127;-72
2022/05/31 02:21:41;;;;;;;5.07;4.57;;;10.20;99.90;;;;;;5095304;28;20040;-72
2022/05/31 02:24:13;;;;;;;8.23;4.55;;;10.20;99.90;;;;;;5094888;28;20040;-72
2022/05/31 02:26:41;;;;;;;6.25;4.22;;;10.20;99.90;;;;;;5095076;28;20044;-72
2022/05/31 02:29:10;;;;;;;5.38;4.20;;;10.20;99.90;;;;;;5095240;28;20052;-72
2022/05/31 02:31:37;;;;;;;5.72;4.32;;;10.20;99.90;;;;;;5096058;28;20047;-71
2022/05/31 02:34:04;;;;;;;4.32;3.83;;;10.20;99.90;;;;;;5078197;28;20075;-72
2022/05/31 02:36:31;;;;;;;8.02;4.53;;;10.10;99.90;;;;;;5095608;28;20063;-72
2022/05/31 02:38:58;;;;;;;5.80;4.72;;;10.20;99.90;;;;;;5094649;28;20476;-72
2022/05/31 02:41:25;;;;;;;4.80;4.40;;;10.20;99.90;;;;;;5078331;28;20044;-72
2022/05/31 02:43:52;;;;;;;5.28;3.40;;;10.10;99.90;;;;;;5078230;28;20040;-71
2022/05/31 02:46:19;;;;;;;7.38;3.83;;;10.10;99.90;;;;;;5061383;28;20059;-72
2022/05/31 02:48:47;;;;;;;4.28;3.88;;;10.10;99.90;;;;;;5095830;28;20056;-71
2022/05/31 02:51:15;;;;;;;5.13;3.53;;;10.10;99.90;;;;;;5095337;28;20048;-71
2022/05/31 02:53:42;;;;;;;5.43;3.88;;;10.00;99.90;;;;;;5094779;28;20044;-71
2022/05/31 02:56:09;;;;;;;4.75;3.72;;;10.00;99.90;;;;;;5077643;28;20044;-72
2022/05/31 02:58:36;;;;;;;5.45;3.67;;;10.00;99.90;;;;;;5077663;28;20044;-71
2022/05/31 03:01:18;;;;;;;5.00;3.67;;;9.90;99.90;;;;;;5077961;28;20047;-71
2022/05/31 03:03:45;;;;;;;6.07;3.53;;;9.90;99.90;;;;;;5078442;28;20426;-71
2022/05/31 03:06:12;;;;;;;4.50;3.60;;;9.80;99.90;;;;;;5095430;28;20044;-71
2022/05/31 03:08:39;;;;;;;6.05;3.47;;;9.80;99.90;;;;;;5094474;28;20048;-71
2022/05/31 03:11:08;;;;;;;3.67;2.65;;;9.80;99.90;;;;;;5095624;28;20480;-71
2022/05/31 03:13:34;;;;;;;3.13;2.67;;;9.80;99.90;;;;;;5060989;28;20051;-72
2022/05/31 03:16:02;;;;;;;3.47;3.00;;;9.70;99.90;;;;;;5077663;28;20044;-71
2022/05/31 03:18:33;;;;;;;3.72;3.10;;;9.80;99.90;;;;;;5094165;28;20047;-71
2022/05/31 03:21:04;;;;;;;3.33;2.60;;;9.80;99.90;;;;;;5077529;28;20043;-71
2022/05/31 03:23:33;;;;;;;3.17;2.55;;;9.80;99.90;;;;;;5078634;28;20066;-71
2022/05/31 03:26:01;;;;;;;3.38;2.67;;;9.70;99.90;;;;;;5077342;28;20047;-72
2022/05/31 03:28:28;;;;;;;3.45;2.60;;;9.70;99.90;;;;;;5077197;28;20057;-71
2022/05/31 03:30:55;;;;;;;4.28;2.70;;;9.70;99.90;;;;;;5077849;28;20056;-72
2022/05/31 03:33:25;;;;;;;3.75;3.10;;;9.70;99.90;;;;;;5094863;28;20040;-71
2022/05/31 03:35:52;;;;;;;3.83;2.50;;;9.70;99.90;;;;;;5060119;28;20063;-71
2022/05/31 03:38:19;;;;;;;3.63;2.80;;;9.70;99.90;;;;;;5094733;28;20044;-67
2022/05/31 03:40:58;;;;;;;3.35;2.80;;;9.70;99.90;;;;;;5093916;28;20497;-63
2022/05/31 03:43:27;;;;;;;;;;;9.70;99.90;;;;;;5095195;28;20044;-73
2022/05/31 03:45:54;;;;;;;3.40;2.70;;;9.70;99.90;;;;;;5093853;28;20335;-73
2022/05/31 03:48:21;;;;;;;5.43;3.30;;;9.70;99.90;;;;;;5093342;28;20047;-73
2022/05/31 03:50:57;;;;;;;4.25;2.92;;;9.70;99.90;;;;;;5093418;28;20047;-73
2022/05/31 03:53:24;;;;;;;3.90;3.03;;;9.80;99.90;;;;;;5093759;28;20040;-72
2022/05/31 03:55:51;;;;;;;3.85;2.50;;;9.80;99.90;;;;;;5077458;28;20452;-73
2022/05/31 03:58:18;;;;;;;5.07;3.83;;;9.80;99.90;;;;;;5094403;28;20036;-72
2022/05/31 04:00:46;;;;;;;4.90;2.88;;;9.80;99.90;;;;;;5094763;28;20040;-73
2022/05/31 04:03:13;;;;;;;4.50;3.35;;;9.80;99.90;;;;;;5093996;28;20044;-73
2022/05/31 04:05:40;;;;;;;3.80;2.70;;;9.80;99.90;;;;;;5094290;28;20040;-73
2022/05/31 04:08:10;;;;;;;4.22;3.00;;;9.80;99.90;;;;;;5093386;28;20039;-72
2022/05/31 04:10:39;;;;;;;4.20;2.88;;;9.80;99.90;;;;;;5060632;28;20119;-72
2022/05/31 04:13:06;;;;;;;3.78;3.20;;;9.80;99.90;;;;;;5092993;28;20498;-72
2022/05/31 04:15:33;;;;;;;5.90;3.28;;;9.80;99.90;;;;;;5093045;28;20051;-73
2022/05/31 04:18:00;;;;;;;4.43;3.15;;;9.80;99.90;;;;;;5093166;28;20048;-73
2022/05/31 04:20:27;;;;;;;3.92;2.60;;;9.80;99.90;;;;;;5077077;28;20040;-72
2022/05/31 04:23:58;;;;;;;4.10;3.10;;;9.80;99.90;;;;;;5076320;28;20067;-72
2022/05/31 04:25:45;;;;;;;3.78;2.80;;;9.90;99.90;;;;;;5092898;28;20078;-72
2022/05/31 04:28:12;;;;;;;3.25;2.88;;;9.90;99.90;;;;;;5092690;28;20505;-72
2022/05/31 04:30:43;;;;;;;3.45;2.97;;;9.90;99.90;;;;;;5092782;28;20517;-72
2022/05/31 04:33:11;;;;;;;4.43;2.60;;;9.90;99.90;;;;;;5077307;28;20368;-72
2022/05/31 04:35:37;;;;;;;4.30;2.40;;;9.90;99.90;;;;;;5076829;28;20044;-72
2022/05/31 04:38:04;;;;;;;2.80;2.45;;;9.90;99.90;;;;;;5092408;28;20040;-72
2022/05/31 04:40:31;;;;;;;5.05;2.85;;;9.90;99.90;;;;;;5094835;28;20044;-72
2022/05/31 04:42:58;;;;;;;3.35;3.05;;;10.00;99.90;;;;;;5093644;28;20040;-72
2022/05/31 04:45:26;;;;;;;5.15;3.13;;;10.00;99.90;;;;;;5093681;28;20036;-72
2022/05/31 04:47:53;;;;;;;3.97;2.67;;;10.00;99.90;;;;;;5074800;28;20056;-72
2022/05/31 04:50:20;;;;;;;3.70;2.70;;;10.10;99.90;;;;;;5092348;28;20051;-72
2022/05/31 04:52:47;;;;;;;3.40;3.00;;;10.00;99.90;;;;;;5092265;28;20365;-72
2022/05/31 04:55:13;;;;;;;3.25;2.78;;;10.00;99.90;;;;;;5093835;28;20060;-72
2022/05/31 04:57:40;;;;;;;4.15;2.80;;;10.00;99.90;;;;;;5075852;28;20040;-72
2022/05/31 05:00:08;;;;;;;9.10;2.72;;;10.10;99.90;;;;;;5092215;28;20036;-72
2022/05/31 05:02:35;;;;;;;4.85;3.00;;;10.10;99.90;;;;;;5092773;28;20051;-72
2022/05/31 05:05:02;;;;;;;3.55;2.78;;;10.10;99.90;;;;;;5093409;28;20055;-72
2022/05/31 05:07:30;;;;;;;4.93;2.90;;;10.10;99.90;;;;;;5094489;28;20078;-72
2022/05/31 05:09:57;;;;;;;6.28;3.45;;;10.10;99.90;;;;;;5092489;28;20054;-72
2022/05/31 05:12:24;;;;;;;3.60;2.92;;;10.10;99.90;;;;;;5092175;28;20051;-72
2022/05/31 05:14:51;;;;;;;3.63;2.58;;;10.10;99.90;;;;;;5075445;28;20480;-72
2022/05/31 05:17:18;;;;;;;3.97;2.47;;;10.10;99.90;;;;;;5076512;28;20051;-72
2022/05/31 05:19:45;;;;;;;3.17;2.38;;;10.10;99.90;;;;;;5092862;28;20371;-72
2022/05/31 05:22:12;;;;;;;4.07;2.55;;;10.00;99.90;;;;;;5093591;28;20044;-72
2022/05/31 05:24:39;;;;;;;4.78;2.22;;;10.00;99.90;;;;;;5094142;28;20044;-72
2022/05/31 05:27:05;;;;;;;4.50;2.10;;;10.00;99.90;;;;;;5093313;28;20072;-72
2022/05/31 05:32:18;;;;;;;3.35;2.25;;;10.00;99.90;;;;;;5094452;28;20048;-72
2022/05/31 05:34:52;;;;;;;2.53;1.90;;;10.00;99.90;;;;;;5093644;28;20044;-72
2022/05/31 05:37:20;;;;;;;4.05;2.42;;;10.00;99.90;;;;;;5060332;28;20052;-72
2022/05/31 05:39:47;;;;;;;2.83;2.05;;;10.00;99.90;;;;;;5075725;28;20050;-72
2022/05/31 05:42:14;;;;;;;3.78;2.38;;;10.00;99.90;;;;;;5059022;28;20050;-72
2022/05/31 05:44:41;;;;;;;2.40;2.10;;;10.00;99.90;;;;;;5093234;28;20047;-72
2022/05/31 05:47:09;;;;;;;3.55;1.98;;;10.00;99.90;;;;;;5075573;28;20046;-73
2022/05/31 05:49:36;;;;;;;3.33;1.83;;;10.10;99.90;;;;;;5075392;28;20048;-72
2022/05/31 05:52:06;;;;;;;2.65;1.77;;;10.10;99.90;;;;;;5092969;28;20036;-72
2022/05/31 05:54:33;;;;;;;8.40;3.00;;;10.10;99.90;;;;;;5094282;28;20371;-72
2022/05/31 05:57:00;;;;;;;2.85;1.80;;;10.10;99.90;;;;;;5075361;28;20051;-72
2022/05/31 05:59:27;;;;;;;3.50;2.15;;;10.20;99.90;;;;;;5077661;28;20050;-72
2022/05/31 06:02:00;;;;;;;3.53;2.30;;;10.20;99.90;;;;;;5095339;28;20055;-73
2022/05/31 06:04:52;;;;;;;4.32;2.25;;;10.30;99.90;;;;;;5082324;28;20043;-72
2022/05/31 06:07:28;;;;;;;2.25;1.77;;;10.40;99.90;;;;;;5095754;28;20051;-73
2022/05/31 06:10:01;;;;;;;2.70;1.88;;;10.50;99.90;;;;;;5062875;28;20054;-73
2022/05/31 06:12:31;;;;;;;2.30;1.90;;;10.60;99.90;;;;;;5079226;28;20047;-73
2022/05/31 06:15:00;;;;;;;2.92;1.92;;;10.60;99.90;;;;;;5078932;28;20040;-73
2022/05/31 06:17:32;;;;;;;3.75;2.35;;;10.70;99.90;;;;;;5062388;28;20054;-73
2022/05/31 06:20:01;;;;;;;8.77;7.25;;;10.80;99.90;;;;;;5096284;28;20040;-69
2022/05/31 06:22:28;;;;;;;5.22;3.22;;;10.90;99.90;;;;;;5079008;28;20040;-70
2022/05/31 06:24:57;;;;;;;115.05;90.10;;;11.00;99.90;;;;;;5078371;28;20383;-69
2022/05/31 06:27:25;;;;;;;13.82;10.90;;;11.10;99.90;;;;;;5095567;28;20345;-73
2022/05/31 06:29:51;;;;;;;5.25;4.75;;;11.30;99.90;;;;;;5094894;28;20056;-76
2022/05/31 06:32:18;;;;;;;6.07;2.97;;;11.50;99.90;;;;;;5096535;28;20379;-75
2022/05/31 06:34:46;;;;;;;76.05;67.70;;;11.80;99.90;;;;;;5094896;28;20135;-69
2022/05/31 06:37:14;;;;;;;4.93;4.38;;;12.00;99.90;;;;;;5094810;28;20050;-71
2022/05/31 06:39:42;;;;;;;3.78;3.00;;;12.10;99.90;;;;;;5078254;28;20036;-74
2022/05/31 06:42:12;;;;;;;4.65;3.10;;;12.10;99.90;;;;;;5095971;28;20535;-73
2022/05/31 06:44:40;;;;;;;3.53;2.03;;;12.10;99.90;;;;;;5062532;28;20066;-73
2022/05/31 06:47:07;;;;;;;48.88;37.03;;;12.10;99.90;;;;;;5095448;28;20487;-71
2022/05/31 06:49:35;;;;;;;7.50;5.15;;;12.00;99.90;;;;;;5094879;28;20047;-71
2022/05/31 06:57:34;;;;;;;2.45;2.03;;;12.00;99.90;;;;;;5095622;28;20529;-70
2022/05/31 07:00:02;;;;;;;5.03;2.00;;;12.00;99.90;;;;;;5094520;28;20044;-71
2022/05/31 07:02:29;;;;;;;2.63;1.92;;;12.10;99.90;;;;;;5096313;28;20053;-71
2022/05/31 07:04:56;;;;;;;4.10;2.45;;;12.20;99.90;;;;;;5078338;28;20044;-77
2022/05/31 07:07:23;;;;;;;3.05;2.03;;;12.30;99.90;;;;;;5094237;28;20472;-72
2022/05/31 07:09:51;;;;;;;3.20;1.77;;;12.50;99.90;;;;;;5095544;28;20043;-73
2022/05/31 07:12:18;;;;;;;2.67;1.88;;;12.70;99.90;;;;;;5094396;28;20043;-74
2022/05/31 07:14:45;;;;;;;3.08;2.00;;;12.90;99.90;;;;;;5095781;28;20036;-74
2022/05/31 07:17:12;;;;;;;3.53;1.85;;;13.20;99.90;;;;;;5095135;28;20371;-73
2022/05/31 07:19:39;;;;;;;3.95;1.88;;;13.50;99.90;;;;;;5077631;28;20123;-71
2022/05/31 07:22:26;;;;;;;2.38;1.75;;;13.70;99.90;;;;;;5094347;28;20040;-68
2022/05/31 07:24:53;;;;;;;3.63;1.85;;;14.00;99.90;;;;;;5095397;28;20051;-73
2022/05/31 07:27:20;;;;;;;199.70;151.27;;;14.20;99.90;;;;;;5094983;28;20044;-74
2022/05/31 07:29:47;;;;;;;32.75;26.77;;;14.30;99.90;;;;;;5093719;28;20048;-70
2022/05/31 07:32:14;;;;;;;6.68;5.82;;;14.50;99.90;;;;;;5094324;28;20044;-76
2022/05/31 07:35:01;;;;;;;6.50;3.72;;;14.70;99.90;;;;;;5095019;28;20040;-74
2022/05/31 07:37:28;;;;;;;3.25;2.17;;;14.80;99.90;;;;;;5094010;28;20040;-75
2022/05/31 07:39:55;;;;;;;5.70;1.98;;;14.90;99.90;;;;;;5077073;28;20044;-71
2022/05/31 07:42:22;;;;;;;1.77;1.30;;;14.90;99.90;;;;;;5093529;28;20047;-73
2022/05/31 07:44:53;;;;;;;4.00;1.90;;;14.90;99.90;;;;;;5094649;28;20130;-73
2022/05/31 07:47:20;;;;;;;2.28;1.33;;;15.00;99.90;;;;;;5094707;28;20044;-73
2022/05/31 07:49:47;;;;;;;4.47;1.92;;;15.00;99.90;;;;;;5095970;28;20055;-73
2022/05/31 07:52:14;;;;;;;3.58;1.77;;;15.20;99.90;;;;;;5094534;28;20040;-73
2022/05/31 07:54:41;;;;;;;3.10;1.67;;;15.20;99.90;;;;;;5094734;28;20052;-72
2022/05/31 07:58:30;;;;;;;3.60;1.65;;;15.10;99.90;;;;;;5095217;28;20051;-71
2022/05/31 07:59:55;;;;;;;2.47;1.52;;;15.10;99.90;;;;;;5093668;28;20044;-72
2022/05/31 08:02:24;;;;;;;6.55;2.10;;;15.00;99.90;;;;;;5094009;28;20414;-71
2022/05/31 08:04:51;;;;;;;4.22;1.70;;;15.00;99.90;;;;;;5093416;28;20044;-77
2022/05/31 08:07:18;;;;;;;3.60;1.77;;;15.00;99.90;;;;;;5094293;28;20498;-78
2022/05/31 08:09:45;;;;;;;3.88;1.60;;;15.00;99.90;;;;;;5094162;28;20379;-79
2022/05/31 08:12:12;;;;;;;4.22;1.83;;;15.10;99.90;;;;;;5093055;28;20048;-79
2022/05/31 08:14:39;;;;;;;4.15;1.55;;;15.20;99.90;;;;;;5076235;28;20050;-77
2022/05/31 08:17:06;;;;;;;3.20;1.30;;;15.30;99.90;;;;;;5093221;28;20047;-77
2022/05/31 08:19:33;;;;;;;2.95;1.83;;;15.30;99.90;;;;;;5094333;28;20046;-78
2022/05/31 08:22:01;;;;;;;5.28;3.47;;;15.20;99.90;;;;;;5094434;28;20051;-72
2022/05/31 08:24:28;;;;;;;3.97;2.28;;;15.30;99.90;;;;;;5093910;28;20482;-75
2022/05/31 08:27:12;;;;;;;3.70;2.00;;;15.30;99.90;;;;;;5093167;28;20052;-72
2022/05/31 08:29:40;;;;;;;3.72;1.63;;;15.20;99.90;;;;;;5093507;28;20055;-73
2022/05/31 08:32:07;;;;;;;2.97;1.67;;;15.10;99.90;;;;;;5093280;28;20245;-74
2022/05/31 08:34:34;;;;;;;4.28;1.67;;;15.10;99.90;;;;;;5092521;28;20420;-71
2022/05/31 08:37:01;;;;;;;3.08;1.35;;;15.10;99.90;;;;;;5092818;28;20050;-74
2022/05/31 08:39:28;;;;;;;4.88;1.73;;;15.10;99.90;;;;;;5092762;28;20040;-73
2022/05/31 08:42:06;;;;;;;3.50;1.75;;;15.40;99.90;;;;;;5092537;28;20425;-73
2022/05/31 08:44:41;;;;;;;3.42;1.77;;;15.50;99.90;;;;;;5093589;28;20044;-73
2022/05/31 08:47:38;;;;;;;1.90;1.40;;;15.60;99.90;;;;;;5093244;28;20040;-73
2022/05/31 08:56:56;;;;;;;7.85;2.25;;;15.70;99.90;;;;;;5078873;28;20050;-73
2022/05/31 08:56:57;;;;;;;3.50;1.90;;;15.60;99.90;;;;;;5093357;28;20467;-73
2022/05/31 08:59:23;;;;;;;5.35;2.30;;;15.60;99.90;;;;;;5078694;28;20517;-73
2022/05/31 09:01:52;;;;;;;5.47;2.28;;;15.50;99.90;;;;;;5093422;28;20052;-73
2022/05/31 09:04:37;;;;;;;6.32;3.03;;;15.60;99.90;;;;;;5092477;28;20076;-73
2022/05/31 09:07:09;;;;;;;2.97;1.95;;;15.70;99.90;;;;;;5078709;28;20048;-73
2022/05/31 09:09:39;;;;;;;2.80;1.50;;;15.80;99.90;;;;;;5077012;28;20438;-73
2022/05/31 09:12:09;;;;;;;4.55;2.22;;;16.00;99.90;;;;;;5076470;28;20139;-73
2022/05/31 09:14:54;;;;;;;2.78;1.90;;;16.10;99.90;;;;;;5093312;28;20051;-73
2022/05/31 09:17:46;;;;;;;2.90;1.88;;;16.20;99.90;;;;;;5092637;28;20054;-73
2022/05/31 09:20:40;;;;;;;4.00;1.77;;;16.30;99.90;;;;;;5071954;28;20128;-73
2022/05/31 09:23:07;;;;;;;4.93;1.80;;;16.40;99.90;;;;;;5090220;28;20040;-73
2022/05/31 09:25:39;;;;;;;4.38;2.25;;;16.40;99.90;;;;;;5093249;28;20040;-73
2022/05/31 09:28:23;;;;;;;5.47;2.25;;;16.60;99.90;;;;;;5075993;28;20390;-74
2022/05/31 09:30:50;;;;;;;2.67;1.58;;;16.50;99.90;;;;;;5092965;28;20486;-74
2022/05/31 09:33:34;;;;;;;3.53;2.25;;;16.50;99.90;;;;;;5077598;28;20048;-73
2022/05/31 09:36:10;;;;;;;3.83;1.92;;;16.50;99.90;;;;;;5095965;28;20039;-73
2022/05/31 09:38:48;;;;;;;2.80;1.52;;;16.60;99.90;;;;;;5096050;28;20067;-73
2022/05/31 09:41:27;;;;;;;2.42;1.23;;;16.60;99.90;;;;;;5096712;28;20040;-74
2022/05/31 09:44:06;;;;;;;3.45;1.80;;;16.70;99.90;;;;;;5095780;28;20055;-72
2022/05/31 09:46:47;;;;;;;2.45;1.60;;;16.80;99.90;;;;;;5097012;28;20040;-72
2022/05/31 09:49:39;;;;;;;4.53;1.67;;;16.90;99.90;;;;;;5095517;28;20051;-72
2022/05/31 09:52:42;;;;;;;5.90;1.70;;;17.20;99.90;;;;;;5074456;28;20040;-72
2022/05/31 09:58:03;;;;;;;2.25;1.33;;;17.30;99.90;;;;;;5095697;28;20047;-72
2022/05/31 10:00:30;;;;;;;;;;;17.40;99.90;;;;;;5098026;28;20040;-72
2022/05/31 10:03:04;;;;;;;4.80;1.58;;;17.50;98.30;;;;;;5096645;28;20326;-72
2022/05/31 10:05:31;;;;;;;3.15;1.70;;;17.70;99.50;;;;;;5096309;28;20044;-72
2022/05/31 10:07:58;;;;;;;2.78;1.30;;;17.80;98.50;;;;;;5095638;28;20040;-73
2022/05/31 10:10:33;;;;;;;2.38;1.27;;;17.70;94.80;;;;;;5097394;28;20048;-72
2022/05/31 10:13:03;;;;;;;2.13;1.30;;;17.70;94.60;;;;;;5079784;28;20057;-72
2022/05/31 10:15:42;;;;;;;3.03;1.48;;;17.70;96.00;;;;;;5095276;28;20089;-72
2022/05/31 10:18:13;;;;;;;;;;;17.70;95.80;;;;;;5097731;28;20044;-72
2022/05/31 10:21:25;;;;;;;3.42;1.40;;;17.60;96.70;;;;;;5095023;28;19916;-73
2022/05/31 10:23:52;;;;;;;3.38;1.70;;;17.60;94.70;;;;;;5074299;28;20062;-72
2022/05/31 10:26:24;;;;;;;3.63;1.50;;;17.70;99.90;;;;;;5090189;28;20040;-72
2022/05/31 10:28:57;;;;;;;5.20;1.70;;;17.90;99.90;;;;;;5095715;28;20043;-72
2022/05/31 10:31:34;;;;;;;3.20;1.67;;;17.90;95.80;;;;;;5095774;28;20044;-72
2022/05/31 10:34:05;;;;;;;3.90;1.88;;;17.80;98.00;;;;;;5094772;28;20127;-72
2022/05/31 10:36:45;;;;;;;2.13;1.30;;;17.60;97.20;;;;;;5095721;28;20040;-72
2022/05/31 10:39:12;;;;;;;3.42;1.55;;;17.60;95.90;;;;;;5095651;28;20048;-73
2022/05/31 10:41:39;;;;;;;3.00;1.35;;;17.80;95.00;;;;;;5077874;28;20051;-72
2022/05/31 10:44:36;;;;;;;2.40;1.58;;;18.00;94.50;;;;;;5093706;28;20040;-72
2022/05/31 10:47:14;;;;;;;3.00;1.60;;;18.10;90.80;;;;;;5078690;28;20044;-72
2022/05/31 10:49:42;;;;;;;2.97;1.47;;;18.00;88.30;;;;;;5078187;28;20058;-72
2022/05/31 10:52:31;;;;;;;2.90;1.53;;;18.10;91.50;;;;;;5077999;28;20052;-74
2022/05/31 10:54:58;;;;;;;15.03;13.47;;;18.30;91.70;;;;;;5094369;28;20046;-76
2022/05/31 10:57:44;;;;;;;5.38;2.92;;;18.30;92.80;;;;;;5095185;28;20040;-75
2022/05/31 11:00:24;;;;;;;3.72;2.20;;;18.30;91.70;;;;;;5095356;28;20044;-77
2022/05/31 11:03:06;;;;;;;6.07;1.90;;;18.20;91.60;;;;;;5079122;28;20139;-68
2022/05/31 11:06:10;;;;;;;2.75;1.73;;;17.90;92.90;;;;;;5095424;28;20084;-75
2022/05/31 11:11:52;;;;;;;2.13;1.35;;;17.70;94.30;;;;;;5094312;28;20535;-76
2022/05/31 11:14:36;;;;;;;1.63;1.30;;;17.80;95.40;;;;;;5095522;28;20070;-70
2022/05/31 11:17:05;;;;;;;2.72;1.42;;;18.00;93.40;;;;;;5077249;28;20046;-68
2022/05/31 11:19:44;;;;;;;3.22;1.30;;;18.10;91.90;;;;;;5095512;28;20067;-66
2022/05/31 11:22:32;;;;;;;1.92;1.17;;;18.20;91.80;;;;;;5095404;28;20047;-67
2022/05/31 11:25:19;;;;;;;3.08;1.35;;;18.30;92.50;;;;;;5095089;28;20468;-68
2022/05/31 11:28:14;;;;;;;2.33;1.30;;;18.40;83.50;;;;;;5078589;28;20040;-68
2022/05/31 11:31:11;;;;;;;2.80;0.88;;;18.40;89.30;;;;;;5095685;28;20474;-68
2022/05/31 11:33:57;;;;;;;2.03;1.10;;;18.40;90.10;;;;;;5094762;28;20044;-68
2022/05/31 11:36:45;;;;;;;2.28;1.30;;;18.60;89.70;;;;;;5095898;28;20040;-75
2022/05/31 11:39:37;;;;;;;3.35;1.27;;;18.90;90.00;;;;;;5095596;28;20131;-72
2022/05/31 11:42:28;;;;;;;2.72;1.20;;;19.10;83.10;;;;;;5095022;28;20044;-70
2022/05/31 11:45:07;;;;;;;3.67;1.55;;;18.90;83.20;;;;;;5061830;28;20051;-69
2022/05/31 11:47:52;;;;;;;;;;;18.60;89.70;;;;;;5078083;28;20483;-70
2022/05/31 11:50:45;;;;;;;8.85;7.82;;;18.20;80.80;;;;;;5094834;28;20335;-69
2022/05/31 11:53:18;;;;;;;6.40;4.28;;;17.90;91.40;;;;;;5095348;28;20044;-70
2022/05/31 11:55:54;;;;;;;4.35;2.28;;;17.60;88.80;;;;;;5094586;28;20047;-69
2022/05/31 11:58:26;;;;;;;7.75;2.45;;;16.90;99.90;;;;;;5094318;28;20062;-71
2022/05/31 12:01:11;;;;;;;5.30;2.65;;;16.10;99.90;;;;;;5093130;28;20365;-71
2022/05/31 12:03:45;;;;;;;4.20;2.17;;;15.50;99.90;;;;;;5093323;28;20394;-71
2022/05/31 12:06:43;;;;;;;4.68;2.40;;;15.10;99.90;;;;;;5093801;28;20048;-72
2022/05/31 12:09:21;;;;;;;6.55;2.53;;;14.80;99.90;;;;;;5095395;28;20040;-70
2022/05/31 12:11:51;;;;;;;3.63;1.98;;;14.70;99.90;;;;;;5093129;28;20054;-70
2022/05/31 12:14:19;;;;;;;3.47;1.95;;;14.60;99.90;;;;;;5093319;28;20051;-71
2022/05/31 12:16:46;;;;;;;3.33;2.15;;;14.50;99.90;;;;;;5094458;28;20036;-71
2022/05/31 12:19:25;;;;;;;2.85;1.92;;;14.40;99.90;;;;;;5095178;28;20105;-71
2022/05/31 12:21:58;;;;;;;4.53;1.80;;;14.50;99.90;;;;;;5076127;28;20036;-72
2022/05/31 12:24:47;;;;;;;3.90;1.80;;;14.70;99.90;;;;;;5076473;28;20279;-72
2022/05/31 12:27:15;;;;;;;4.03;1.80;;;15.00;99.90;;;;;;5094604;28;20036;-71
2022/05/31 12:30:05;;;;;;;3.67;2.10;;;15.20;99.90;;;;;;5076989;28;20475;-71
2022/05/31 12:32:35;;;;;;;5.85;2.30;;;15.20;99.90;;;;;;5093036;28;20047;-71
2022/05/31 12:35:04;;;;;;;4.00;2.40;;;15.30;99.90;;;;;;5094188;28;20044;-71
2022/05/31 12:38:02;;;;;;;4.55;2.13;;;15.40;99.90;;;;;;5094088;28;20471;-70
2022/05/31 12:40:32;;;;;;;5.35;2.00;;;15.30;99.90;;;;;;5092631;28;20463;-71
2022/05/31 12:43:15;;;;;;;53.92;41.42;;;15.20;99.90;;;;;;5094525;28;20048;-72
2022/05/31 12:45:50;;;;;;;6.22;4.53;;;15.30;99.90;;;;;;5075839;28;20460;-73
2022/05/31 12:48:17;;;;;;;5.88;2.88;;;15.30;99.90;;;;;;5076582;28;20468;-74
2022/05/31 12:50:56;;;;;;;4.43;2.20;;;15.30;99.90;;;;;;5093688;28;20043;-76
2022/05/31 12:53:43;;;;;;;3.38;1.90;;;15.30;99.90;;;;;;5093874;28;20383;-74
2022/05/31 12:56:30;;;;;;;2.22;1.50;;;15.40;99.90;;;;;;5090510;28;20043;-74
2022/05/31 12:58:58;;;;;;;2.47;1.42;;;15.50;99.90;;;;;;5089841;28;20040;-74
2022/05/31 13:01:24;;;;;;;4.00;1.63;;;15.70;99.90;;;;;;5092226;28;20471;-76
2022/05/31 13:03:57;;;;;;;2.47;1.50;;;15.90;99.90;;;;;;5092276;28;20397;-77
2022/05/31 13:07:02;;;;;;;2.78;1.83;;;16.20;99.90;;;;;;5077085;28;20097;-73
2022/05/31 13:09:33;;;;;;;2.53;1.23;;;16.40;99.90;;;;;;5091726;28;20058;-70
2022/05/31 13:20:58;;;;;;;2.67;1.10;;;16.90;99.90;;;;;;5092198;28;20040;-73
2022/05/31 13:23:29;;;;;;;2.10;1.05;;;16.80;99.90;;;;;;5076043;28;20052;-74
2022/05/31 13:25:59;;;;;;;2.25;1.00;;;16.90;99.90;;;;;;5075722;28;20050;-70
2022/05/31 13:28:36;;;;;;;3.42;1.20;;;16.80;99.90;;;;;;5093622;28;20047;-71
2022/05/31 13:31:15;;;;;;;1.92;1.20;;;16.80;99.90;;;;;;5092495;28;20036;-71
2022/05/31 13:33:42;;;;;;;4.40;1.38;;;16.80;99.90;;;;;;5076341;28;20492;-67
2022/05/31 13:36:16;;;;;;;2.55;1.20;;;16.70;99.90;;;;;;5093137;28;20044;-68
2022/05/31 13:38:46;;;;;;;1.95;1.30;;;16.60;99.90;;;;;;5091901;28;20047;-69
2022/05/31 13:41:18;;;;;;;1.73;1.20;;;16.60;99.90;;;;;;5092059;28;20123;-69
2022/05/31 13:43:50;;;;;;;26.85;21.48;;;16.60;99.90;;;;;;5075523;28;20040;-68